createdAt,value
2023-01-19T00:00:49.754Z,-5.31
2023-01-19T00:03:18.025Z,-5.24
2023-01-19T00:05:44.937Z,-5.13
2023-01-19T00:08:15.035Z,-5.15
2023-01-19T00:10:53.225Z,-5.07
2023-01-19T00:13:19.726Z,-4.90
2023-01-19T00:15:46.260Z,-4.90
2023-01-19T00:18:12.922Z,-5.03
2023-01-19T00:20:40.692Z,-5.00
2023-01-19T00:23:08.308Z,-5.09
2023-01-19T00:25:35.850Z,-5.29
2023-01-19T00:28:02.392Z,-5.36
2023-01-19T00:30:29.675Z,-5.49
2023-01-19T00:32:56.360Z,-5.39
2023-01-19T00:35:22.851Z,-5.35
2023-01-19T00:37:49.288Z,-5.12
2023-01-19T00:40:16.077Z,-5.08
2023-01-19T00:42:48.126Z,-5.09
2023-01-19T00:45:20.546Z,-5.01
2023-01-19T00:47:48.455Z,-5.06
2023-01-19T00:50:16.812Z,-4.93
2023-01-19T00:52:44.515Z,-4.78
2023-01-19T00:55:13.398Z,-4.70
2023-01-19T00:57:40.597Z,-4.59
2023-01-19T01:00:12.050Z,-4.13
2023-01-19T01:02:40.258Z,-4.27
2023-01-19T01:05:07.863Z,-4.42
2023-01-19T01:07:40.549Z,-4.44
2023-01-19T01:10:09.297Z,-4.56
2023-01-19T01:12:36.872Z,-4.53
2023-01-19T01:15:05.027Z,-4.53
2023-01-19T01:17:31.904Z,-4.60
2023-01-19T01:19:58.501Z,-4.70
2023-01-19T01:22:25.025Z,-4.76
2023-01-19T01:24:51.528Z,-4.92
2023-01-19T01:27:18.120Z,-4.98
2023-01-19T01:29:46.599Z,-5.12
2023-01-19T01:32:16.818Z,-5.01
2023-01-19T01:34:46.287Z,-5.03
2023-01-19T01:37:12.671Z,-5.00
2023-01-19T01:39:39.203Z,-4.95
2023-01-19T01:42:16.548Z,-4.88
2023-01-19T01:45:06.074Z,-4.84
2023-01-19T01:47:44.268Z,-4.83
2023-01-19T01:50:10.729Z,-4.71
2023-01-19T01:53:06.832Z,-4.79
2023-01-19T01:55:40.954Z,-4.64
2023-01-19T01:58:09.862Z,-4.56
2023-01-19T02:00:56.592Z,-4.71
2023-01-19T02:03:25.458Z,-4.82
2023-01-19T02:05:56.795Z,-4.70
2023-01-19T02:08:56.462Z,-4.56
2023-01-19T02:11:41.894Z,-3.95
2023-01-19T02:14:08.295Z,-3.22
2023-01-19T02:16:36.634Z,-2.93
2023-01-19T02:19:05.203Z,-2.62
2023-01-19T02:21:35.271Z,-2.46
2023-01-19T02:24:03.136Z,-2.37
2023-01-19T02:26:34.842Z,-2.26
2023-01-19T02:29:08.466Z,-2.17
2023-01-19T02:31:37.667Z,-2.08
2023-01-19T02:34:05.992Z,-2.02
2023-01-19T02:36:40.965Z,-1.99
2023-01-19T02:39:10.019Z,-1.91
2023-01-19T02:41:43.949Z,-1.95
2023-01-19T02:44:12.578Z,-1.93
2023-01-19T02:46:39.177Z,-1.91
2023-01-19T02:49:05.561Z,-1.86
2023-01-19T02:51:32.767Z,-1.79
2023-01-19T02:54:20.820Z,-1.75
2023-01-19T02:57:32.436Z,-1.75
2023-01-19T03:00:21.042Z,-1.76
2023-01-19T03:03:04.503Z,-1.88
2023-01-19T03:05:40.424Z,-1.94
2023-01-19T03:08:07.820Z,-1.93
2023-01-19T03:10:51.354Z,-1.85
2023-01-19T03:13:32.022Z,-1.87
2023-01-19T03:16:13.457Z,-1.83
2023-01-19T03:18:42.863Z,-1.80
2023-01-19T03:21:13.282Z,-1.87
2023-01-19T03:23:41.968Z,-1.80
2023-01-19T03:26:13.955Z,-1.73
2023-01-19T03:28:43.116Z,-1.75
2023-01-19T03:31:15.177Z,-1.88
2023-01-19T03:33:45.352Z,-1.95
2023-01-19T03:36:19.528Z,-1.92
2023-01-19T03:38:48.896Z,-1.93
2023-01-19T03:41:18.813Z,-1.83
2023-01-19T03:43:49.067Z,-1.74
2023-01-19T03:46:19.304Z,-1.78
2023-01-19T03:48:46.656Z,-1.67
2023-01-19T03:51:14.542Z,-1.70
2023-01-19T03:53:41.914Z,-1.75
2023-01-19T03:56:20.181Z,-1.77
2023-01-19T03:58:46.693Z,-1.73
2023-01-19T04:01:14.920Z,-1.73
2023-01-19T04:03:42.462Z,-1.67
2023-01-19T04:06:10.232Z,-1.69
2023-01-19T04:08:37.031Z,-1.76
2023-01-19T04:11:03.539Z,-1.71
2023-01-19T04:13:30.536Z,-1.76
2023-01-19T04:16:05.155Z,-1.71
2023-01-19T04:18:34.639Z,-1.65
2023-01-19T04:21:06.164Z,-1.66
2023-01-19T04:23:33.524Z,-1.70
2023-01-19T04:26:05.603Z,-1.71
2023-01-19T04:28:33.158Z,-1.71
2023-01-19T04:30:59.596Z,-1.66
2023-01-19T04:33:27.282Z,-1.65
2023-01-19T04:35:55.201Z,-1.61
2023-01-19T04:38:23.001Z,-1.51
2023-01-19T04:40:50.458Z,-1.51
2023-01-19T04:43:17.223Z,-1.52
2023-01-19T04:45:46.621Z,-1.42
2023-01-19T04:48:14.077Z,-1.38
2023-01-19T04:50:41.931Z,-1.38
2023-01-19T04:53:08.846Z,-1.48
2023-01-19T04:55:36.818Z,-1.48
2023-01-19T04:58:03.318Z,-1.49
2023-01-19T05:00:29.940Z,-1.46
2023-01-19T05:02:56.354Z,-1.32
2023-01-19T05:05:22.866Z,-1.50
2023-01-19T05:07:49.296Z,-1.50
2023-01-19T05:10:16.007Z,-1.47
2023-01-19T05:12:42.592Z,-1.58
2023-01-19T05:15:10.150Z,-1.63
2023-01-19T05:17:37.035Z,-1.66
2023-01-19T05:20:04.553Z,-1.73
2023-01-19T05:22:31.316Z,-1.69
2023-01-19T05:24:58.334Z,-1.54
2023-01-19T05:27:24.704Z,-1.62
2023-01-19T05:29:51.128Z,-1.67
2023-01-19T05:32:17.588Z,-1.71
2023-01-19T05:34:44.174Z,-1.64
2023-01-19T05:37:10.999Z,-1.62
2023-01-19T05:39:37.421Z,-1.64
2023-01-19T05:42:04.236Z,-1.63
2023-01-19T05:44:30.723Z,-1.65
2023-01-19T05:46:57.212Z,-1.67
2023-01-19T05:49:23.702Z,-1.72
2023-01-19T05:51:50.133Z,-1.70
2023-01-19T05:54:16.770Z,-1.64
2023-01-19T05:56:43.772Z,-1.66
2023-01-19T05:59:10.566Z,-1.71
2023-01-19T06:01:39.856Z,-1.76
2023-01-19T06:04:06.614Z,-1.80
2023-01-19T06:06:33.067Z,-1.81
2023-01-19T06:08:59.585Z,-1.78
2023-01-19T06:11:26.234Z,-1.68
2023-01-19T06:13:52.951Z,-1.63
2023-01-19T06:16:19.568Z,-1.55
2023-01-19T06:18:46.161Z,-1.50
2023-01-19T06:21:14.219Z,-1.44
2023-01-19T06:23:40.989Z,-1.27
2023-01-19T06:26:07.540Z,-1.45
2023-01-19T06:28:34.510Z,-1.46
2023-01-19T06:31:01.084Z,-1.38
2023-01-19T06:33:28.752Z,-1.41
2023-01-19T06:35:56.209Z,-1.38
2023-01-19T06:38:23.076Z,-1.28
2023-01-19T06:40:55.738Z,-1.19
2023-01-19T06:43:22.523Z,-1.13
2023-01-19T06:45:50.088Z,-1.14
2023-01-19T06:48:17.329Z,-1.21
2023-01-19T06:50:47.594Z,-1.22
2023-01-19T06:53:16.618Z,-1.21
2023-01-19T06:55:44.214Z,-1.17
2023-01-19T06:58:11.975Z,-1.05
2023-01-19T07:00:38.674Z,-1.12
2023-01-19T07:03:08.383Z,-1.14
2023-01-19T07:05:36.200Z,-1.08
2023-01-19T07:08:03.940Z,-1.10
2023-01-19T07:11:25.071Z,-1.08
2023-01-19T07:13:17.078Z,-1.17
2023-01-19T07:15:43.725Z,-1.20
2023-01-19T07:18:10.285Z,-1.18
2023-01-19T07:20:40.563Z,-1.08
2023-01-19T07:23:07.004Z,-1.05
2023-01-19T07:25:33.496Z,-0.90
2023-01-19T07:28:00.291Z,-0.80
2023-01-19T07:30:27.037Z,-0.67
2023-01-19T07:32:58.237Z,-0.43
2023-01-19T07:35:25.451Z,-0.39
2023-01-19T07:37:51.927Z,-0.34
2023-01-19T07:40:18.476Z,-0.42
2023-01-19T07:42:49.135Z,-0.32
2023-01-19T07:45:17.328Z,-0.32
2023-01-19T07:47:48.886Z,-0.31
2023-01-19T07:50:17.083Z,-0.30
2023-01-19T07:52:43.686Z,-0.25
2023-01-19T07:55:10.341Z,-0.09
2023-01-19T07:57:36.794Z,0.07
2023-01-19T08:00:05.043Z,0.01
2023-01-19T08:02:33.943Z,0.25
2023-01-19T08:05:00.349Z,0.59
2023-01-19T08:07:26.857Z,0.46
2023-01-19T08:09:53.380Z,0.87
2023-01-19T08:12:19.972Z,0.50
2023-01-19T08:14:46.500Z,0.32
2023-01-19T08:17:13.858Z,0.41
2023-01-19T08:19:41.681Z,0.54
2023-01-19T08:22:08.208Z,1.11
2023-01-19T08:24:34.673Z,0.96
2023-01-19T08:27:03.536Z,1.27
2023-01-19T08:29:33.710Z,1.54
2023-01-19T08:32:02.610Z,1.36
2023-01-19T08:34:32.895Z,1.49
2023-01-19T08:36:59.569Z,1.42
2023-01-19T08:39:27.441Z,1.91
2023-01-19T08:41:54.123Z,1.97
2023-01-19T08:44:20.709Z,1.75
2023-01-19T08:46:47.547Z,1.69
2023-01-19T08:49:14.168Z,1.37
2023-01-19T08:51:40.671Z,1.03
2023-01-19T08:54:07.139Z,0.87
2023-01-19T08:56:33.591Z,1.20
2023-01-19T08:59:09.298Z,0.92
2023-01-19T09:01:37.462Z,0.89
2023-01-19T09:04:04.136Z,0.91
2023-01-19T09:06:30.735Z,0.94
2023-01-19T09:08:57.651Z,0.71
2023-01-19T09:11:24.225Z,0.75
2023-01-19T09:13:50.882Z,1.02
2023-01-19T09:16:17.581Z,0.88
2023-01-19T09:18:46.007Z,0.96
2023-01-19T09:21:13.850Z,0.85
2023-01-19T09:23:40.526Z,0.85
2023-01-19T09:26:07.185Z,0.76
2023-01-19T09:28:33.863Z,0.61
2023-01-19T09:31:05.341Z,0.88
2023-01-19T09:33:31.952Z,1.01
2023-01-19T09:35:58.912Z,1.10
2023-01-19T09:38:26.886Z,0.84
2023-01-19T09:40:55.496Z,1.00
2023-01-19T09:43:40.955Z,0.74
2023-01-19T09:46:18.951Z,0.67
2023-01-19T09:48:53.775Z,0.49
2023-01-19T09:51:23.800Z,0.46
2023-01-19T09:54:00.032Z,0.67
2023-01-19T09:56:29.179Z,1.08
2023-01-19T09:58:55.627Z,1.20
2023-01-19T10:01:37.331Z,1.23
2023-01-19T10:04:20.331Z,1.07
2023-01-19T10:06:48.617Z,1.21
2023-01-19T10:09:28.305Z,1.21
2023-01-19T10:12:23.265Z,1.05
2023-01-19T10:15:01.573Z,0.61
2023-01-19T10:17:49.719Z,0.82
2023-01-19T10:20:42.965Z,0.98
2023-01-19T10:23:41.766Z,0.71
2023-01-19T10:26:23.011Z,1.17
2023-01-19T10:28:52.976Z,0.87
2023-01-19T10:31:23.212Z,0.90
2023-01-19T10:33:50.809Z,0.75
2023-01-19T10:36:20.737Z,1.07
2023-01-19T10:38:48.005Z,1.03
2023-01-19T10:41:19.395Z,1.23
2023-01-19T10:43:47.469Z,0.86
2023-01-19T10:46:28.901Z,1.08
2023-01-19T10:48:56.031Z,1.50
2023-01-19T10:51:23.285Z,1.68
2023-01-19T10:53:56.175Z,1.46
2023-01-19T10:56:30.596Z,1.55
2023-01-19T10:58:59.631Z,1.58
2023-01-19T11:01:28.276Z,1.60
2023-01-19T11:03:57.054Z,1.71
2023-01-19T11:06:29.161Z,1.64
2023-01-19T11:09:16.490Z,1.96
2023-01-19T11:11:51.652Z,1.96
2023-01-19T11:14:21.945Z,2.17
2023-01-19T11:16:51.957Z,2.34
2023-01-19T11:19:28.018Z,2.29
2023-01-19T11:22:10.613Z,2.14
2023-01-19T11:24:38.684Z,2.37
2023-01-19T11:27:05.269Z,2.15
2023-01-19T11:29:32.231Z,2.33
2023-01-19T11:32:12.188Z,2.21
2023-01-19T11:34:39.174Z,1.77
2023-01-19T11:37:27.120Z,1.65
2023-01-19T11:39:59.413Z,1.82
2023-01-19T11:42:29.464Z,1.46
2023-01-19T11:45:05.263Z,1.23
2023-01-19T11:47:44.882Z,1.70
2023-01-19T11:50:31.843Z,1.44
2023-01-19T11:53:29.181Z,1.20
2023-01-19T11:55:59.810Z,0.83
2023-01-19T11:58:27.156Z,0.95
2023-01-19T12:01:00.373Z,1.23
2023-01-19T12:03:47.410Z,1.09
2023-01-19T12:06:25.472Z,0.68
2023-01-19T12:08:59.534Z,1.28
2023-01-19T12:11:31.634Z,1.07
2023-01-19T12:13:59.893Z,1.29
2023-01-19T12:16:32.838Z,1.28
2023-01-19T12:19:16.718Z,1.30
2023-01-19T12:21:48.137Z,1.26
2023-01-19T12:24:28.378Z,1.21
2023-01-19T12:27:00.837Z,1.34
2023-01-19T12:29:34.521Z,1.52
2023-01-19T12:32:13.153Z,1.53
2023-01-19T12:34:43.815Z,1.69
2023-01-19T12:37:35.954Z,1.59
2023-01-19T12:40:17.647Z,1.41
2023-01-19T12:42:47.048Z,1.46
2023-01-19T12:45:16.771Z,1.67
2023-01-19T12:47:56.344Z,1.83
2023-01-19T12:50:25.972Z,1.60
2023-01-19T12:52:58.700Z,1.58
2023-01-19T12:55:33.531Z,1.41
2023-01-19T12:58:34.528Z,1.40
2023-01-19T13:01:19.794Z,1.52
2023-01-19T13:04:09.578Z,1.50
2023-01-19T13:06:48.234Z,1.99
2023-01-19T13:09:31.856Z,2.37
2023-01-19T13:12:13.597Z,2.17
2023-01-19T13:14:42.235Z,2.39
2023-01-19T13:17:33.510Z,2.20
2023-01-19T13:20:05.158Z,1.95
2023-01-19T13:22:50.023Z,1.61
2023-01-19T13:25:33.777Z,1.81
2023-01-19T13:28:01.172Z,1.53
2023-01-19T13:30:29.369Z,1.75
2023-01-19T13:33:03.383Z,1.68
2023-01-19T13:35:29.995Z,1.78
2023-01-19T13:37:58.907Z,2.12
2023-01-19T13:40:33.307Z,2.17
2023-01-19T13:43:01.110Z,2.02
2023-01-19T13:45:34.061Z,1.64
2023-01-19T13:48:04.729Z,2.08
2023-01-19T13:50:34.161Z,1.79
2023-01-19T13:53:01.414Z,1.17
2023-01-19T13:55:30.364Z,1.13
2023-01-19T13:57:57.678Z,1.69
2023-01-19T14:00:26.994Z,1.52
2023-01-19T14:02:55.301Z,1.48
2023-01-19T14:05:36.014Z,1.38
2023-01-19T14:08:23.093Z,1.75
2023-01-19T14:10:52.358Z,1.63
2023-01-19T14:13:29.487Z,1.72
2023-01-19T14:15:59.882Z,1.79
2023-01-19T14:18:30.104Z,1.50
2023-01-19T14:20:59.670Z,1.29
2023-01-19T14:23:36.308Z,1.67
2023-01-19T14:26:02.833Z,1.79
2023-01-19T14:28:35.331Z,1.90
2023-01-19T14:31:17.402Z,1.53
2023-01-19T14:33:46.325Z,1.80
2023-01-19T14:36:42.010Z,2.15
2023-01-19T14:39:21.779Z,2.04
2023-01-19T14:41:52.650Z,2.32
2023-01-19T14:44:34.131Z,1.67
2023-01-19T14:47:01.525Z,1.37
2023-01-19T14:49:35.422Z,1.62
2023-01-19T14:52:06.330Z,2.12
2023-01-19T14:54:40.396Z,2.32
2023-01-19T14:57:12.519Z,2.15
2023-01-19T14:59:39.130Z,1.44
2023-01-19T15:02:05.977Z,1.41
2023-01-19T15:04:32.545Z,1.81
2023-01-19T15:06:58.950Z,2.04
2023-01-19T15:09:25.552Z,1.92
2023-01-19T15:11:52.634Z,1.86
2023-01-19T15:14:21.136Z,1.91
2023-01-19T15:16:48.061Z,1.65
2023-01-19T15:19:16.976Z,1.73
2023-01-19T15:21:46.283Z,1.99
2023-01-19T15:24:13.739Z,1.98
2023-01-19T15:26:42.627Z,2.02
2023-01-19T15:29:25.286Z,1.97
2023-01-19T15:31:52.518Z,2.15
2023-01-19T15:34:19.015Z,2.11
2023-01-19T15:36:45.523Z,2.06
2023-01-19T15:39:11.942Z,2.23
2023-01-19T15:41:39.785Z,2.22
2023-01-19T15:44:10.044Z,2.19
2023-01-19T15:46:37.168Z,2.22
2023-01-19T15:49:05.663Z,2.18
2023-01-19T15:51:32.869Z,2.19
2023-01-19T15:53:59.380Z,2.06
2023-01-19T15:56:28.783Z,1.91
2023-01-19T15:58:58.154Z,1.65
2023-01-19T16:01:34.677Z,1.47
2023-01-19T16:04:03.636Z,1.62
2023-01-19T16:06:31.263Z,1.48
2023-01-19T16:09:01.848Z,1.92
2023-01-19T16:11:31.196Z,1.96
2023-01-19T16:13:58.032Z,2.12
2023-01-19T16:16:25.848Z,2.17
2023-01-19T16:18:52.652Z,2.14
2023-01-19T16:21:19.135Z,2.22
2023-01-19T16:23:46.172Z,2.51
2023-01-19T16:26:29.924Z,2.42
2023-01-19T16:28:58.320Z,1.97
2023-01-19T16:31:25.124Z,2.10
2023-01-19T16:33:54.445Z,2.04
2023-01-19T16:36:24.397Z,1.83
2023-01-19T16:38:51.104Z,1.62
2023-01-19T16:41:17.999Z,1.44
2023-01-19T16:43:44.815Z,1.54
2023-01-19T16:46:24.247Z,1.63
2023-01-19T16:48:51.650Z,1.79
2023-01-19T16:51:19.064Z,1.75
2023-01-19T16:53:45.942Z,1.83
2023-01-19T16:56:14.778Z,1.86
2023-01-19T16:58:41.960Z,1.83
2023-01-19T17:01:19.529Z,1.83
2023-01-19T17:03:46.505Z,1.76
2023-01-19T17:06:18.098Z,1.78
2023-01-19T17:08:45.105Z,1.80
2023-01-19T17:11:22.946Z,1.76
2023-01-19T17:13:55.187Z,1.56
2023-01-19T17:16:24.194Z,1.64
2023-01-19T17:18:50.964Z,1.68
2023-01-19T17:21:18.061Z,1.66
2023-01-19T17:23:48.960Z,1.70
2023-01-19T17:26:16.597Z,1.55
2023-01-19T17:28:43.565Z,1.60
2023-01-19T17:31:15.966Z,1.54
2023-01-19T17:33:47.714Z,1.47
2023-01-19T17:36:16.778Z,1.41
2023-01-19T17:38:43.362Z,1.37
2023-01-19T17:41:17.181Z,1.48
2023-01-19T17:43:44.286Z,1.43
2023-01-19T17:46:11.544Z,1.52
2023-01-19T17:48:38.472Z,1.47
2023-01-19T17:51:10.843Z,1.33
2023-01-19T17:53:38.757Z,1.36
2023-01-19T17:56:08.128Z,1.11
2023-01-19T17:58:35.029Z,1.01
2023-01-19T18:01:26.450Z,1.01
2023-01-19T18:03:53.588Z,1.06
2023-01-19T18:06:21.251Z,0.92
2023-01-19T18:08:48.838Z,0.99
2023-01-19T18:11:17.771Z,1.19
2023-01-19T18:13:46.223Z,1.33
2023-01-19T18:16:15.918Z,1.42
2023-01-19T18:18:44.109Z,1.50
2023-01-19T18:21:13.532Z,1.46
2023-01-19T18:23:40.784Z,1.43
2023-01-19T18:26:09.940Z,1.32
2023-01-19T18:28:36.732Z,1.21
2023-01-19T18:31:09.832Z,0.80
2023-01-19T18:33:37.194Z,0.49
2023-01-19T18:36:04.349Z,0.47
2023-01-19T18:38:31.298Z,0.47
2023-01-19T18:41:01.984Z,0.56
2023-01-19T18:43:28.490Z,0.23
2023-01-19T18:45:54.964Z,0.36
2023-01-19T18:48:21.526Z,0.19
2023-01-19T18:50:48.119Z,0.08
2023-01-19T18:53:14.591Z,0.15
2023-01-19T18:55:58.351Z,0.03
2023-01-19T18:58:28.422Z,-0.13
2023-01-19T19:00:56.185Z,-0.09
2023-01-19T19:03:23.232Z,-0.10
2023-01-19T19:05:49.756Z,-0.15
2023-01-19T19:08:16.363Z,-0.16
2023-01-19T19:10:43.904Z,-0.11
2023-01-19T19:13:15.057Z,-0.03
2023-01-19T19:15:41.646Z,-0.07
2023-01-19T19:18:08.924Z,-0.09
2023-01-19T19:20:42.088Z,-0.10
2023-01-19T19:23:08.635Z,-0.24
2023-01-19T19:25:35.147Z,-0.28
2023-01-19T19:28:01.616Z,-0.33
2023-01-19T19:30:28.268Z,-0.31
2023-01-19T19:32:59.848Z,-0.35
2023-01-19T19:35:26.367Z,-0.46
2023-01-19T19:37:57.470Z,-0.51
2023-01-19T19:40:25.595Z,-0.52
2023-01-19T19:42:52.071Z,-0.43
2023-01-19T19:45:19.369Z,-0.48
2023-01-19T19:47:45.917Z,-0.48
2023-01-19T19:50:12.677Z,-0.61
2023-01-19T19:52:40.510Z,-0.94
2023-01-19T19:55:09.836Z,-1.08
2023-01-19T19:57:36.496Z,-1.09
2023-01-19T20:00:05.172Z,-1.01
2023-01-19T20:02:32.041Z,-0.94
2023-01-19T20:04:58.712Z,-1.00
2023-01-19T20:07:25.265Z,-0.96
2023-01-19T20:09:53.379Z,-1.03
2023-01-19T20:12:19.909Z,-1.03
2023-01-19T20:14:46.506Z,-1.08
2023-01-19T20:17:13.080Z,-1.06
2023-01-19T20:19:39.472Z,-1.08
2023-01-19T20:22:06.887Z,-1.09
2023-01-19T20:24:33.316Z,-1.25
2023-01-19T20:26:59.819Z,-1.23
2023-01-19T20:29:26.266Z,-1.34
2023-01-19T20:31:55.309Z,-1.26
2023-01-19T20:34:26.639Z,-1.39
2023-01-19T20:36:53.955Z,-1.42
2023-01-19T20:39:22.445Z,-1.23
2023-01-19T20:41:51.202Z,-1.25
2023-01-19T20:44:23.433Z,-1.31
2023-01-19T20:46:50.464Z,-1.30
2023-01-19T20:49:17.143Z,-1.23
2023-01-19T20:51:45.236Z,-1.17
2023-01-19T20:54:13.956Z,-0.99
2023-01-19T20:56:41.504Z,-0.99
2023-01-19T20:59:09.167Z,-1.03
2023-01-19T21:01:36.192Z,-1.11
2023-01-19T21:04:02.785Z,-1.23
2023-01-19T21:06:29.406Z,-1.44
2023-01-19T21:08:57.468Z,-1.50
2023-01-19T21:11:25.627Z,-1.50
2023-01-19T21:13:55.707Z,-1.57
2023-01-19T21:16:24.390Z,-1.62
2023-01-19T21:18:51.029Z,-1.65
2023-01-19T21:21:29.386Z,-1.71
2023-01-19T21:23:57.231Z,-1.79
2023-01-19T21:26:23.804Z,-1.79
2023-01-19T21:28:50.520Z,-1.74
2023-01-19T21:31:17.113Z,-1.78
2023-01-19T21:33:43.905Z,-1.77
2023-01-19T21:36:11.229Z,-1.90
2023-01-19T21:38:38.807Z,-1.86
2023-01-19T21:41:12.463Z,-1.88
2023-01-19T21:43:41.701Z,-1.87
2023-01-19T21:46:09.187Z,-1.91
2023-01-19T21:48:35.650Z,-1.91
2023-01-19T21:51:02.222Z,-1.96
2023-01-19T21:53:28.760Z,-1.93
2023-01-19T21:55:55.204Z,-1.97
2023-01-19T21:58:23.036Z,-1.98
2023-01-19T22:00:49.949Z,-2.10
2023-01-19T22:03:17.184Z,-2.17
2023-01-19T22:05:43.613Z,-2.20
2023-01-19T22:08:10.096Z,-2.27
2023-01-19T22:10:39.657Z,-2.32
2023-01-19T22:13:07.657Z,-2.37
2023-01-19T22:15:34.176Z,-2.37
2023-01-19T22:18:00.647Z,-2.34
2023-01-19T22:20:27.270Z,-2.35
2023-01-19T22:22:53.697Z,-2.44
2023-01-19T22:25:23.840Z,-2.57
2023-01-19T22:27:50.273Z,-2.62
2023-01-19T22:30:17.108Z,-2.73
2023-01-19T22:32:43.617Z,-2.69
2023-01-19T22:35:10.195Z,-2.86
2023-01-19T22:37:37.841Z,-2.69
2023-01-19T22:40:05.003Z,-2.87
2023-01-19T22:42:31.485Z,-2.97
2023-01-19T22:44:57.958Z,-2.97
2023-01-19T22:47:24.527Z,-2.95
2023-01-19T22:49:51.061Z,-3.00
2023-01-19T22:52:17.467Z,-3.01
2023-01-19T22:54:43.863Z,-2.78
2023-01-19T22:57:11.835Z,-2.86
2023-01-19T22:59:38.303Z,-2.83
2023-01-19T23:02:04.830Z,-2.84
2023-01-19T23:04:31.446Z,-2.86
2023-01-19T23:06:57.878Z,-3.09
2023-01-19T23:09:24.350Z,-3.17
2023-01-19T23:11:51.297Z,-3.39
2023-01-19T23:14:20.863Z,-3.41
2023-01-19T23:16:47.812Z,-3.44
2023-01-19T23:19:17.133Z,-3.39
2023-01-19T23:21:44.957Z,-3.35
2023-01-19T23:24:11.856Z,-3.31
2023-01-19T23:26:38.860Z,-3.46
2023-01-19T23:29:08.106Z,-3.28
2023-01-19T23:31:36.581Z,-3.43
2023-01-19T23:34:07.065Z,-3.29
2023-01-19T23:36:35.243Z,-3.47
2023-01-19T23:39:13.327Z,-3.39
2023-01-19T23:41:39.750Z,-3.46
2023-01-19T23:44:06.536Z,-3.36
2023-01-19T23:46:33.199Z,-3.28
2023-01-19T23:48:59.672Z,-3.23
2023-01-19T23:51:29.156Z,-3.27
2023-01-19T23:53:56.821Z,-3.66
2023-01-19T23:56:28.642Z,-3.56
2023-01-19T23:58:59.547Z,-3.53
